Map

Track Data

SID SEASON NUMBER BASIN SUBBASIN NAME ISO_TIME NATURE LAT LON WMO_WIND WMO_PRES WMO_AGENCY TRACK_TYPE DIST2LAND LANDFALL IFLAG USA_AGENCY USA_ATCF_ID USA_LAT USA_LON USA_RECORD USA_STATUS USA_WIND USA_PRES USA_SSHS USA_R34_NE USA_R34_SE USA_R34_SW USA_R34_NW USA_R50_NE USA_R50_SE USA_R50_SW USA_R50_NW USA_R64_NE USA_R64_SE USA_R64_SW USA_R64_NW USA_POCI USA_ROCI USA_RMW USA_EYE TOKYO_LAT TOKYO_LON TOKYO_GRADE TOKYO_WIND TOKYO_PRES TOKYO_R50_DIR TOKYO_R50_LONG TOKYO_R50_SHORT TOKYO_R30_DIR TOKYO_R30_LONG TOKYO_R30_SHORT TOKYO_LAND CMA_LAT CMA_LON CMA_CAT CMA_WIND CMA_PRES HKO_LAT HKO_LON HKO_CAT HKO_WIND HKO_PRES NEWDELHI_LAT NEWDELHI_LON NEWDELHI_GRADE NEWDELHI_WIND NEWDELHI_PRES NEWDELHI_CI NEWDELHI_DP NEWDELHI_POCI REUNION_LAT REUNION_LON REUNION_TYPE REUNION_WIND REUNION_PRES REUNION_TNUM REUNION_CI REUNION_RMW REUNION_R34_NE REUNION_R34_SE REUNION_R34_SW REUNION_R34_NW REUNION_R50_NE REUNION_R50_SE REUNION_R50_SW REUNION_R50_NW REUNION_R64_NE REUNION_R64_SE REUNION_R64_SW REUNION_R64_NW BOM_LAT BOM_LON BOM_TYPE BOM_WIND BOM_PRES BOM_TNUM BOM_CI BOM_RMW BOM_R34_NE BOM_R34_SE BOM_R34_SW BOM_R34_NW BOM_R50_NE BOM_R50_SE BOM_R50_SW BOM_R50_NW BOM_R64_NE BOM_R64_SE BOM_R64_SW BOM_R64_NW BOM_ROCI BOM_POCI BOM_EYE BOM_POS_METHOD BOM_PRES_METHOD NADI_LAT NADI_LON NADI_CAT NADI_WIND NADI_PRES WELLINGTON_LAT WELLINGTON_LON WELLINGTON_WIND WELLINGTON_PRES DS824_LAT DS824_LON DS824_STAGE DS824_WIND DS824_PRES TD9636_LAT TD9636_LON TD9636_STAGE TD9636_WIND TD9636_PRES TD9635_LAT TD9635_LON TD9635_WIND TD9635_PRES TD9635_ROCI NEUMANN_LAT NEUMANN_LON NEUMANN_CLASS NEUMANN_WIND NEUMANN_PRES MLC_LAT MLC_LON MLC_CLASS MLC_WIND MLC_PRES USA_GUST BOM_GUST BOM_GUST_PER REUNION_GUST REUNION_GUST_PER USA_SEAHGT USA_SEARAD_NE USA_SEARAD_SE USA_SEARAD_SW USA_SEARAD_NW STORM_SPEED STORM_DIR
1928346S09096 1929 68 SI WA NOT_NAMED 1928-12-11 00:00:00 TS -8.80000 96.2000 main 847 847 _________O____ -1 -8.80000 96.2000 TC 25 9 131
1928346S09096 1929 68 SI WA NOT_NAMED 1928-12-11 03:00:00 TS -9.10007 96.5499 main 858 849 _________P____ -1 -9.10007 96.5499 TC 25 9 131
1928346S09096 1929 68 SI WA NOT_NAMED 1928-12-11 06:00:00 TS -9.40000 96.9000 main 849 842 _________O____ -1 -9.40000 96.9000 TC 25 9 131
1928346S09096 1929 68 SI WA NOT_NAMED 1928-12-11 09:00:00 TS -9.69996 97.2501 main 844 844 _________P____ -1 -9.69996 97.2501 TC 25 9 131
1928346S09096 1929 68 SI WA NOT_NAMED 1928-12-11 12:00:00 TS -10.0000 97.6000 main 849 842 _________O____ -1 -10.0000 97.6000 TC 25 9 132
1928346S09096 1929 68 SI WA NOT_NAMED 1928-12-11 15:00:00 TS -10.3074 97.9426 main 852 845 _________P____ -1 -10.3074 97.9426 TC 25 9 131
1928346S09096 1929 68 SI WA NOT_NAMED 1928-12-11 18:00:00 TS -10.6000 98.3000 main 851 841 _________O____ -1 -10.6000 98.3000 TC 25 9 126
1928346S09096 1929 68 SI WA NOT_NAMED 1928-12-11 21:00:00 TS -10.8651 98.7150 main 849 825 _________P____ -1 -10.8651 98.7150 TC 25 9 122
1928346S09096 1929 68 SI WA NOT_NAMED 1928-12-12 00:00:00 TS -11.1000 99.1000 main 825 812 _________O____ -1 -11.1000 99.1000 TC 25 8 124
1928346S09096 1929 68 SI WA NOT_NAMED 1928-12-12 03:00:00 TS -11.3074 99.3726 main 812 809 _________P____ -1 -11.3074 99.3726 TC 25 6 129
1928346S09096 1929 68 SI WA NOT_NAMED 1928-12-12 06:00:00 TS -11.5000 99.6000 main 809 800 _________O____ -1 -11.5000 99.6000 TC 25 6 131
1928346S09096 1929 68 SI WA NOT_NAMED 1928-12-12 09:00:00 TS -11.6999 99.8276 main 808 799 _________P____ -1 -11.6999 99.8276 TC 25 6 129
1928346S09096 1929 68 SI WA NOT_NAMED 1928-12-12 12:00:00 TS -11.9000 100.100 main 799 785 _________O____ -1 -11.9000 100.100 TC 25 8 122
1928346S09096 1929 68 SI WA NOT_NAMED 1928-12-12 15:00:00 TS -12.1000 100.478 main 786 773 _________P____ -1 -12.1000 100.478 TC 25 9 117
1928346S09096 1929 68 SI WA NOT_NAMED 1928-12-12 18:00:00 TS -12.3000 100.900 main 775 765 _________O____ -1 -12.3000 100.900 TC 25 9 117
1928346S09096 1929 68 SI WA NOT_NAMED 1928-12-12 21:00:00 TS -12.5150 101.322 main 768 760 _________P____ -1 -12.5150 101.322 TC 25 9 117
1928346S09096 1929 68 SI WA NOT_NAMED 1928-12-13 00:00:00 TS -12.7000 101.700 main 764 758 _________O____ -1 -12.7000 101.700 TC 25 7 114
1928346S09096 1929 68 SI WA NOT_NAMED 1928-12-13 03:00:00 TS -12.8074 101.980 main 758 753 _________P____ -1 -12.8074 101.980 TC 25 5 112
1928346S09096 1929 68 SI WA NOT_NAMED 1928-12-13 06:00:00 TS -12.9000 102.200 main 758 753 _________O____ -1 -12.9000 102.200 TC 25 5 120
1928346S09096 1929 68 SI WA NOT_NAMED 1928-12-13 09:00:00 TS -13.0424 102.400 main 759 759 _________P____ -1 -13.0424 102.400 TC 25 5 128
1928346S09096 1929 68 SI WA NOT_NAMED 1928-12-13 12:00:00 TS -13.2000 102.600 main 771 765 _________O____ -1 -13.2000 102.600 TC 25 5 125
1928346S09096 1929 68 SI WA NOT_NAMED 1928-12-13 15:00:00 TS -13.3500 102.850 main 773 768 _________P____ -1 -13.3500 102.850 TC 25 6 122
1928346S09096 1929 68 SI WA NOT_NAMED 1928-12-13 18:00:00 TS -13.5000 103.100 main 772 767 _________O____ -1 -13.5000 103.100 TC 25 5 124
1928346S09096 1929 68 SI WA NOT_NAMED 1928-12-13 21:00:00 TS -13.6500 103.312 main 772 778 _________P____ -1 -13.6500 103.312 TC 25 5 128
1928346S09096 1929 68 SI WA NOT_NAMED 1928-12-14 00:00:00 TS -13.8000 103.500 main 783 _________O____ -1 -13.8000 103.500 TC 25 5 130

About IBTrACS Database

This database is a web-friendly format of International Best Track Archive for Climate Stewardship (IBTrACS), a global best track data archive curated by NOAA dating back to 1842.

Updated: 2021-12-01